Time;durP1;ratioP1;P1;durP2;ratioP2;P2;SDS_P1;SDS_P2;PMS_P1;PMS_P2;Temp;Humidity;BMP_temperature;BMP_pressure;BME280_temperature;BME280_humidity;BME280_pressure;Samples;Min_cycle;Max_cycle;Signal;HPM_P1;HPM_P2
2021/06/20 00:00:14;;;;;;;29.50;18.58;;;16.90;90.60;;;;;;4939263;29;20031;-58
2021/06/20 00:02:41;;;;;;;29.38;17.20;;;16.90;90.60;;;;;;4940424;29;20411;-58
2021/06/20 00:05:10;;;;;;;25.08;17.90;;;16.90;90.80;;;;;;4940904;29;20130;-59
2021/06/20 00:07:43;;;;;;;30.73;18.27;;;16.80;90.80;;;;;;4939314;29;20067;-58
2021/06/20 00:10:10;;;;;;;27.83;18.70;;;16.80;90.80;;;;;;4940153;29;20043;-58
2021/06/20 00:12:37;;;;;;;32.60;18.70;;;16.80;90.80;;;;;;4922915;29;20103;-58
2021/06/20 00:15:07;;;;;;;32.75;18.20;;;16.80;90.80;;;;;;4940477;29;20047;-58
2021/06/20 00:17:32;;;;;;;33.60;17.27;;;16.80;90.80;;;;;;4938729;29;20035;-58
2021/06/20 00:19:58;;;;;;;27.63;18.88;;;16.80;90.90;;;;;;4939243;29;20094;-58
2021/06/20 00:22:24;;;;;;;32.10;18.42;;;16.80;90.90;;;;;;4940903;29;20066;-58
2021/06/20 00:24:50;;;;;;;25.80;16.65;;;16.80;90.90;;;;;;4938082;29;20064;-58
2021/06/20 00:27:16;;;;;;;25.67;15.88;;;16.80;90.90;;;;;;4939839;29;20135;-58
2021/06/20 00:29:41;;;;;;;26.70;15.38;;;16.80;90.90;;;;;;4939343;29;20070;-58
2021/06/20 00:32:07;;;;;;;25.58;15.15;;;16.80;90.90;;;;;;4940109;29;20038;-58
2021/06/20 00:34:34;;;;;;;25.42;14.65;;;16.80;90.80;;;;;;4939238;29;20054;-59
2021/06/20 00:37:00;;;;;;;21.40;13.13;;;16.80;90.80;;;;;;4923877;29;20091;-58
2021/06/20 00:39:25;;;;;;;24.17;13.73;;;16.80;90.80;;;;;;4940174;28;20902;-58
2021/06/20 00:41:51;;;;;;;24.77;14.35;;;16.80;90.90;;;;;;4938708;29;20118;-58
2021/06/20 00:44:17;;;;;;;24.80;14.48;;;16.90;91.10;;;;;;4938368;29;20050;-58
2021/06/20 00:46:43;;;;;;;29.27;16.55;;;16.90;91.20;;;;;;4938787;29;20113;-58
2021/06/20 00:49:09;;;;;;;31.88;14.98;;;16.80;91.20;;;;;;4923431;29;20039;-58
2021/06/20 00:51:34;;;;;;;24.88;14.10;;;16.90;91.50;;;;;;4939207;29;20039;-58
2021/06/20 00:54:00;;;;;;;23.17;13.63;;;16.90;91.80;;;;;;4923046;29;20431;-58
2021/06/20 00:56:26;;;;;;;12.90;7.35;;;16.90;91.80;;;;;;4939766;29;20067;-58
2021/06/20 00:59:02;;;;;;;29.80;14.60;;;17.00;91.80;;;;;;4938988;29;20630;-58
2021/06/20 01:01:32;;;;;;;13.07;8.75;;;17.10;91.80;;;;;;4907106;29;20822;-61
2021/06/20 01:03:58;;;;;;;26.33;15.25;;;17.40;91.70;;;;;;4938789;28;20505;-61
2021/06/20 01:06:25;;;;;;;17.10;9.10;;;17.60;91.20;;;;;;4940186;29;20175;-60
2021/06/20 01:08:52;;;;;;;14.60;8.20;;;17.80;91.00;;;;;;4938363;29;20078;-60
2021/06/20 01:11:18;;;;;;;15.77;7.60;;;18.10;90.80;;;;;;4939278;29;20039;-60
2021/06/20 01:13:45;;;;;;;14.25;8.30;;;18.50;90.10;;;;;;4940069;29;20043;-60
2021/06/20 01:16:12;;;;;;;13.77;7.93;;;18.90;88.80;;;;;;4939469;29;20046;-60
2021/06/20 01:18:38;;;;;;;14.20;8.30;;;19.10;87.50;;;;;;4938519;29;20047;-60
2021/06/20 01:21:06;;;;;;;14.55;7.93;;;19.30;86.90;;;;;;4938699;29;20095;-60
2021/06/20 01:23:32;;;;;;;21.00;11.45;;;19.40;86.50;;;;;;4938708;29;20040;-62
2021/06/20 01:25:58;;;;;;;11.65;9.13;;;19.40;85.90;;;;;;4939638;29;20509;-60
2021/06/20 01:28:29;;;;;;;22.55;12.77;;;19.30;86.20;;;;;;4938611;29;20630;-61
2021/06/20 01:31:00;;;;;;;20.58;11.77;;;19.20;86.30;;;;;;4938712;29;20050;-61
2021/06/20 01:33:27;;;;;;;27.35;14.63;;;18.90;86.70;;;;;;4938982;29;20039;-61
2021/06/20 01:35:54;;;;;;;24.55;13.45;;;18.80;87.50;;;;;;4938552;29;20043;-61
2021/06/20 01:38:20;;;;;;;23.05;13.82;;;18.50;88.40;;;;;;4938310;29;20060;-61
2021/06/20 01:40:46;;;;;;;21.48;13.88;;;18.30;89.00;;;;;;4923162;29;20047;-61
2021/06/20 01:43:12;;;;;;;25.63;13.43;;;18.20;89.70;;;;;;4937822;29;20046;-61
2021/06/20 01:45:39;;;;;;;23.27;14.95;;;18.10;90.10;;;;;;4939042;29;20061;-62
2021/06/20 01:48:06;;;;;;;23.85;13.32;;;18.00;90.50;;;;;;4939284;29;20051;-61
2021/06/20 01:50:33;;;;;;;21.40;12.55;;;17.90;90.80;;;;;;4936431;28;20070;-61
2021/06/20 01:53:17;;;;;;;23.45;13.20;;;17.80;91.10;;;;;;4941052;28;20040;-61
2021/06/20 01:55:45;;;;;;;22.45;13.35;;;17.80;91.30;;;;;;4942703;29;20046;-61
2021/06/20 01:58:13;;;;;;;17.48;11.48;;;17.70;91.50;;;;;;4942502;29;20071;-62
2021/06/20 02:00:41;;;;;;;18.08;11.95;;;17.60;91.60;;;;;;4941716;29;20044;-62
2021/06/20 02:03:14;;;;;;;19.52;13.15;;;17.60;91.70;;;;;;4942313;28;20492;-60
2021/06/20 02:05:43;;;;;;;18.67;12.80;;;17.60;91.80;;;;;;4942682;29;20130;-61
2021/06/20 02:08:11;;;;;;;23.35;13.68;;;17.60;91.80;;;;;;4942348;29;20050;-60
2021/06/20 02:10:40;;;;;;;20.08;13.88;;;17.60;91.90;;;;;;4943356;29;20043;-62
2021/06/20 02:13:06;;;;;;;26.88;14.77;;;17.60;91.90;;;;;;4942123;29;20031;-61
2021/06/20 02:15:33;;;;;;;25.88;15.05;;;17.60;92.00;;;;;;4942471;29;20472;-61
2021/06/20 02:17:59;;;;;;;30.50;14.65;;;17.60;92.10;;;;;;4942764;29;20035;-61
2021/06/20 02:20:25;;;;;;;22.95;14.98;;;17.50;92.10;;;;;;4940544;29;20031;-60
2021/06/20 02:22:52;;;;;;;20.45;14.18;;;17.50;92.30;;;;;;4941512;29;20126;-61
2021/06/20 02:25:19;;;;;;;22.17;14.90;;;17.50;92.40;;;;;;4943459;29;20035;-60
2021/06/20 02:27:47;;;;;;;26.85;15.82;;;17.40;92.50;;;;;;4941126;29;20480;-61
2021/06/20 02:30:14;;;;;;;22.90;15.45;;;17.40;92.60;;;;;;4940869;29;20039;-60
2021/06/20 02:32:40;;;;;;;22.73;15.68;;;17.40;92.80;;;;;;4941151;29;20043;-61
2021/06/20 02:35:08;;;;;;;25.50;16.05;;;17.40;92.80;;;;;;4940778;29;20571;-61
2021/06/20 02:37:35;;;;;;;30.13;17.02;;;17.40;92.90;;;;;;4941420;29;20523;-60
2021/06/20 02:40:01;;;;;;;29.13;18.63;;;17.40;93.00;;;;;;4940334;29;20051;-61
2021/06/20 02:42:27;;;;;;;26.55;19.40;;;17.40;93.10;;;;;;4941538;29;20039;-60
2021/06/20 02:44:53;;;;;;;32.38;19.80;;;17.40;93.10;;;;;;4942844;29;20595;-61
2021/06/20 02:47:19;;;;;;;29.77;19.33;;;17.50;93.30;;;;;;4940201;29;21040;-60
2021/06/20 02:49:46;;;;;;;32.55;20.70;;;17.40;93.30;;;;;;4940516;29;20470;-61
2021/06/20 02:52:14;;;;;;;26.67;19.55;;;17.40;93.50;;;;;;4941871;29;20051;-60
2021/06/20 02:54:49;;;;;;;31.45;20.10;;;17.50;93.60;;;;;;4924003;29;20049;-62
2021/06/20 02:57:21;;;;;;;29.88;18.75;;;17.40;93.50;;;;;;4939806;29;20086;-60
2021/06/20 02:59:47;;;;;;;30.98;20.88;;;17.40;93.60;;;;;;4941402;29;20047;-60
2021/06/20 03:02:12;;;;;;;30.27;20.73;;;17.40;93.70;;;;;;4925232;29;20039;-61
2021/06/20 03:04:38;;;;;;;29.75;19.92;;;17.40;93.80;;;;;;4934117;28;20097;-61
2021/06/20 03:07:05;;;;;;;29.15;21.42;;;17.50;93.90;;;;;;4940851;29;20031;-63
2021/06/20 03:09:32;;;;;;;37.55;23.33;;;17.50;94.00;;;;;;4939782;29;20077;-64
2021/06/20 03:11:57;;;;;;;37.25;23.77;;;17.50;94.10;;;;;;4939793;29;20051;-65
2021/06/20 03:14:23;;;;;;;39.92;26.23;;;17.50;94.20;;;;;;4924258;29;20405;-65
2021/06/20 03:16:49;;;;;;;31.40;23.77;;;17.50;94.30;;;;;;4924055;29;20074;-63
2021/06/20 03:19:15;;;;;;;31.75;23.98;;;17.60;94.60;;;;;;4940877;29;20571;-64
2021/06/20 03:21:42;;;;;;;32.95;24.92;;;17.60;94.50;;;;;;4941248;29;20492;-64
2021/06/20 03:24:08;;;;;;;35.63;26.30;;;17.70;94.60;;;;;;4939840;29;20407;-64
2021/06/20 03:26:34;;;;;;;31.88;24.75;;;17.70;94.60;;;;;;4941077;29;20567;-64
2021/06/20 03:29:01;;;;;;;30.27;23.70;;;17.70;94.60;;;;;;4940183;29;20102;-64
2021/06/20 03:31:28;;;;;;;23.00;17.83;;;17.80;94.80;;;;;;4940488;29;20047;-64
2021/06/20 03:33:55;;;;;;;35.00;26.35;;;17.80;94.60;;;;;;4939200;29;20043;-64
2021/06/20 03:36:20;;;;;;;31.35;23.42;;;17.90;94.60;;;;;;4941973;29;20098;-64
2021/06/20 03:38:47;;;;;;;28.05;22.55;;;17.90;94.50;;;;;;4941276;29;20063;-63
2021/06/20 03:41:13;;;;;;;31.38;24.23;;;17.90;94.50;;;;;;4940506;29;20494;-64
2021/06/20 03:43:39;;;;;;;33.67;26.35;;;18.00;94.50;;;;;;4939339;29;20066;-63
2021/06/20 03:46:05;;;;;;;36.58;27.60;;;18.00;94.50;;;;;;4939520;29;20122;-64
2021/06/20 03:48:31;;;;;;;42.33;28.40;;;18.00;94.50;;;;;;4940453;29;20363;-64
2021/06/20 03:50:57;;;;;;;34.08;26.92;;;18.00;94.50;;;;;;4940314;29;20039;-63
2021/06/20 03:53:23;;;;;;;39.95;29.35;;;18.00;94.60;;;;;;4922513;29;20047;-64
2021/06/20 03:55:50;;;;;;;37.35;29.30;;;18.10;94.60;;;;;;4940372;29;20531;-63
2021/06/20 03:58:16;;;;;;;21.50;17.73;;;18.00;94.60;;;;;;4939804;29;20042;-64
2021/06/20 04:00:41;;;;;;;31.75;25.60;;;18.10;94.60;;;;;;4921836;29;20058;-63
2021/06/20 04:03:07;;;;;;;38.15;27.13;;;18.20;94.50;;;;;;4939553;29;20039;-63
2021/06/20 04:05:33;;;;;;;33.75;25.92;;;18.40;94.40;;;;;;4939729;29;20073;-64
2021/06/20 04:08:00;;;;;;;38.60;29.95;;;18.40;94.30;;;;;;4908289;29;20110;-64
2021/06/20 04:10:26;;;;;;;32.28;26.05;;;18.50;94.40;;;;;;4938326;29;20039;-63
2021/06/20 04:12:53;;;;;;;33.90;28.73;;;18.50;94.50;;;;;;4940462;29;20062;-60
2021/06/20 04:15:21;;;;;;;45.28;31.95;;;18.60;94.60;;;;;;4940507;28;20039;-60
2021/06/20 04:17:47;;;;;;;33.60;29.98;;;18.60;94.70;;;;;;4939578;29;20090;-59
2021/06/20 04:20:14;;;;;;;39.17;30.27;;;18.80;94.60;;;;;;4939574;29;20059;-59
2021/06/20 04:22:42;;;;;;;32.45;28.08;;;18.80;94.50;;;;;;4939020;29;20036;-59
2021/06/20 04:25:08;;;;;;;33.00;28.75;;;18.90;94.40;;;;;;4923965;29;20093;-59
2021/06/20 04:27:34;;;;;;;32.45;26.75;;;19.00;94.00;;;;;;4939349;29;20058;-59
2021/06/20 04:30:00;;;;;;;32.47;28.35;;;19.00;94.00;;;;;;4939221;29;20507;-59
2021/06/20 04:32:25;;;;;;;36.17;27.60;;;19.00;94.00;;;;;;4939748;29;20788;-59
2021/06/20 04:34:51;;;;;;;37.25;29.90;;;19.00;93.90;;;;;;4940441;29;20492;-59
2021/06/20 04:37:17;;;;;;;30.15;27.15;;;19.00;93.90;;;;;;4938763;29;21285;-59
2021/06/20 04:39:43;;;;;;;33.45;27.85;;;19.10;93.90;;;;;;4938579;29;20570;-59
2021/06/20 04:42:10;;;;;;;28.08;25.10;;;19.00;93.80;;;;;;4939328;29;20041;-59
2021/06/20 04:44:45;;;;;;;29.17;26.27;;;19.00;93.90;;;;;;4940101;29;22357;-59
2021/06/20 04:47:16;;;;;;;29.92;26.83;;;18.90;94.00;;;;;;4921893;29;20050;-59
2021/06/20 04:49:42;;;;;;;30.38;26.83;;;18.90;94.00;;;;;;4939899;29;20047;-59
2021/06/20 04:52:10;;;;;;;29.27;26.35;;;18.90;94.30;;;;;;4940649;29;20039;-59
2021/06/20 04:54:49;;;;;;;29.83;25.73;;;18.80;94.00;;;;;;4937603;29;20083;-59
2021/06/20 04:57:28;;;;;;;30.48;26.15;;;18.80;94.00;;;;;;4939266;29;20047;-59
2021/06/20 05:00:02;;;;;;;28.60;25.25;;;18.80;94.00;;;;;;4938962;29;20094;-59
2021/06/20 05:02:28;;;;;;;29.63;25.90;;;18.70;94.10;;;;;;4938770;28;20032;-59
2021/06/20 05:04:54;;;;;;;28.73;25.70;;;18.70;94.10;;;;;;4939778;29;20119;-59
2021/06/20 05:07:21;;;;;;;30.25;26.23;;;18.70;94.10;;;;;;4939867;29;20074;-59
2021/06/20 05:09:47;;;;;;;29.10;24.63;;;18.70;94.10;;;;;;4939365;29;20051;-59
2021/06/20 05:12:13;;;;;;;28.25;25.00;;;18.70;94.10;;;;;;4938601;29;20487;-59
2021/06/20 05:14:45;;;;;;;28.55;25.25;;;18.60;94.10;;;;;;4938100;29;20157;-59
2021/06/20 05:17:12;;;;;;;28.60;25.48;;;18.70;94.10;;;;;;4939868;29;20035;-59
2021/06/20 05:19:38;;;;;;;29.92;25.63;;;18.70;94.00;;;;;;4939085;29;20711;-59
2021/06/20 05:22:06;;;;;;;28.08;25.02;;;18.60;94.10;;;;;;4938696;29;20601;-59
2021/06/20 05:24:32;;;;;;;31.20;26.58;;;18.60;94.20;;;;;;4940232;29;20035;-59
2021/06/20 05:26:58;;;;;;;31.52;26.70;;;18.60;94.20;;;;;;4939462;29;20043;-62
2021/06/20 05:29:25;;;;;;;35.05;27.77;;;18.60;94.30;;;;;;4942229;29;20047;-62
2021/06/20 05:31:50;;;;;;;29.88;24.77;;;18.50;94.40;;;;;;4942562;29;20035;-62
2021/06/20 05:34:16;;;;;;;30.60;26.02;;;18.50;94.40;;;;;;4943138;29;20043;-62
2021/06/20 05:36:42;;;;;;;32.88;26.33;;;18.50;94.40;;;;;;4941952;29;20035;-62
2021/06/20 05:39:08;;;;;;;31.45;26.25;;;18.50;94.50;;;;;;4942789;29;20396;-62
2021/06/20 05:41:34;;;;;;;28.90;25.30;;;18.50;94.80;;;;;;4943843;29;20054;-63
2021/06/20 05:44:01;;;;;;;31.58;24.83;;;18.50;94.60;;;;;;4942876;29;20047;-62
2021/06/20 05:46:26;;;;;;;29.38;25.77;;;18.50;94.70;;;;;;4925344;29;20043;-62
2021/06/20 05:48:52;;;;;;;26.50;23.75;;;18.60;94.80;;;;;;4943425;29;20053;-62
2021/06/20 05:51:18;;;;;;;29.77;23.73;;;18.60;94.80;;;;;;4942468;29;20039;-62
2021/06/20 05:53:45;;;;;;;27.42;24.27;;;18.60;94.80;;;;;;4942052;29;20047;-62
2021/06/20 05:56:11;;;;;;;27.00;24.13;;;18.70;94.80;;;;;;4941246;29;20115;-62
2021/06/20 05:58:37;;;;;;;25.98;22.77;;;18.70;94.90;;;;;;4942429;29;20050;-62
2021/06/20 06:01:03;;;;;;;28.80;25.50;;;18.80;94.90;;;;;;4942275;29;20047;-62
2021/06/20 06:03:31;;;;;;;28.67;24.40;;;18.80;94.90;;;;;;4941925;29;20046;-63
2021/06/20 06:05:57;;;;;;;27.38;24.67;;;18.90;95.00;;;;;;4941134;29;20703;-64
2021/06/20 06:08:22;;;;;;;27.45;24.55;;;18.90;95.00;;;;;;4935312;29;20047;-62
2021/06/20 06:10:48;;;;;;;26.85;24.02;;;19.00;94.90;;;;;;4924286;29;20500;-63
2021/06/20 06:13:14;;;;;;;29.08;24.40;;;19.00;95.10;;;;;;4941166;29;20036;-62
2021/06/20 06:15:40;;;;;;;29.45;24.27;;;19.10;94.90;;;;;;4943223;29;20039;-62
2021/06/20 06:18:06;;;;;;;31.25;25.77;;;19.10;94.80;;;;;;4939483;29;20039;-63
2021/06/20 06:20:32;;;;;;;30.80;25.67;;;19.10;94.90;;;;;;4941099;29;20039;-62
2021/06/20 06:22:58;;;;;;;29.65;26.45;;;19.20;95.00;;;;;;4940506;29;20047;-62
2021/06/20 06:25:24;;;;;;;29.05;25.85;;;19.30;95.10;;;;;;4942046;29;20074;-62
2021/06/20 06:27:50;;;;;;;29.83;25.05;;;19.40;95.00;;;;;;4940582;29;20062;-62
2021/06/20 06:30:17;;;;;;;28.73;25.70;;;19.50;95.00;;;;;;4942490;29;20043;-63
2021/06/20 06:32:44;;;;;;;27.02;23.00;;;19.60;94.90;;;;;;4943440;29;20123;-62
2021/06/20 06:35:11;;;;;;;27.13;24.15;;;19.70;94.80;;;;;;4939400;29;20039;-63
2021/06/20 06:37:38;;;;;;;26.05;21.90;;;19.70;94.70;;;;;;4940917;28;20847;-63
2021/06/20 06:40:06;;;;;;;28.35;21.75;;;19.80;94.70;;;;;;4940041;29;20503;-63
2021/06/20 06:42:32;;;;;;;22.65;20.40;;;19.80;94.60;;;;;;4941766;29;20122;-64
2021/06/20 06:44:58;;;;;;;21.63;19.25;;;19.90;94.30;;;;;;4940553;29;20165;-64
2021/06/20 06:47:25;;;;;;;26.38;23.25;;;20.00;94.00;;;;;;4942485;29;20043;-65
2021/06/20 06:49:51;;;;;;;24.35;21.70;;;20.10;93.80;;;;;;4942713;29;20148;-64
2021/06/20 06:52:17;;;;;;;21.63;19.42;;;20.10;93.50;;;;;;4940449;29;20044;-63
2021/06/20 06:54:52;;;;;;;21.77;19.38;;;20.20;93.20;;;;;;4940698;29;20042;-63
2021/06/20 06:57:19;;;;;;;22.15;19.88;;;20.30;92.90;;;;;;4941390;29;20035;-65
2021/06/20 06:59:45;;;;;;;22.88;20.05;;;20.40;92.70;;;;;;4941676;29;20070;-64
2021/06/20 07:02:11;;;;;;;20.25;18.20;;;20.50;92.60;;;;;;4940813;29;20066;-64
2021/06/20 07:04:37;;;;;;;18.30;16.05;;;20.70;92.30;;;;;;4940991;28;20035;-64
2021/06/20 07:07:03;;;;;;;18.67;16.88;;;20.70;91.70;;;;;;4942760;29;20095;-61
2021/06/20 07:09:29;;;;;;;16.48;14.88;;;20.80;91.30;;;;;;4939543;29;20095;-62
2021/06/20 07:11:55;;;;;;;17.73;15.10;;;20.80;91.10;;;;;;4940560;29;20047;-63
2021/06/20 07:14:21;;;;;;;17.55;15.10;;;20.80;90.70;;;;;;4941615;29;20066;-64
2021/06/20 07:16:47;;;;;;;17.10;15.30;;;20.90;90.60;;;;;;4940764;29;20047;-63
2021/06/20 07:19:12;;;;;;;15.85;14.30;;;20.90;90.50;;;;;;4939849;29;20047;-60
2021/06/20 07:21:39;;;;;;;19.20;13.88;;;20.90;90.20;;;;;;4925066;29;20073;-60
2021/06/20 07:24:06;;;;;;;12.55;11.20;;;20.90;90.00;;;;;;4941955;29;20035;-62
2021/06/20 07:26:34;;;;;;;13.98;11.73;;;20.90;89.60;;;;;;4940618;29;20039;-62
2021/06/20 07:29:00;;;;;;;11.77;10.18;;;20.80;89.40;;;;;;4939515;29;20118;-62
2021/06/20 07:31:26;;;;;;;10.80;9.70;;;20.90;88.80;;;;;;4942314;29;21156;-62
2021/06/20 07:33:53;;;;;;;9.93;8.60;;;20.90;88.60;;;;;;4940840;29;20118;-61
2021/06/20 07:36:18;;;;;;;8.95;7.63;;;21.00;87.80;;;;;;4938967;29;20052;-63
2021/06/20 07:38:45;;;;;;;7.72;7.00;;;21.00;86.80;;;;;;4940628;29;20995;-64
2021/06/20 07:41:12;;;;;;;7.60;6.80;;;21.00;86.30;;;;;;4941312;29;20050;-64
2021/06/20 07:43:38;;;;;;;6.55;5.68;;;21.00;85.60;;;;;;4940616;29;20051;-63
2021/06/20 07:46:04;;;;;;;4.68;3.90;;;21.10;85.70;;;;;;4939653;29;20051;-64
2021/06/20 07:48:31;;;;;;;4.15;3.30;;;21.10;84.70;;;;;;4940388;29;20629;-60
2021/06/20 07:50:57;;;;;;;5.32;3.33;;;21.10;84.40;;;;;;4941133;29;20038;-59
2021/06/20 07:53:22;;;;;;;3.45;2.80;;;21.10;84.00;;;;;;4940515;29;20035;-58
2021/06/20 07:55:48;;;;;;;4.22;3.15;;;21.10;84.20;;;;;;4939116;29;20121;-59
2021/06/20 07:58:14;;;;;;;3.58;3.28;;;21.00;84.50;;;;;;4938505;29;20381;-59
2021/06/20 08:00:41;;;;;;;4.00;3.28;;;21.00;84.30;;;;;;4939202;29;20396;-59
2021/06/20 08:03:07;;;;;;;119.15;87.88;;;21.00;84.10;;;;;;4940291;29;20046;-59
2021/06/20 08:05:33;;;;;;;41.13;31.90;;;21.00;83.80;;;;;;4938417;29;20047;-60
2021/06/20 08:07:59;;;;;;;5.68;3.35;;;21.00;83.80;;;;;;4940706;29;20035;-60
2021/06/20 08:10:25;;;;;;;4.38;3.65;;;21.00;84.00;;;;;;4924763;29;20051;-59
2021/06/20 08:12:50;;;;;;;4.75;2.72;;;21.00;84.20;;;;;;4938779;29;20050;-58
2021/06/20 08:15:16;;;;;;;4.97;2.85;;;21.00;84.10;;;;;;4940244;29;20046;-58
2021/06/20 08:17:42;;;;;;;6.00;3.33;;;21.00;83.90;;;;;;4922018;29;20164;-57
2021/06/20 08:20:11;;;;;;;4.35;2.63;;;21.10;83.60;;;;;;4940230;29;20062;-57
2021/06/20 08:22:38;;;;;;;3.13;2.55;;;21.20;83.20;;;;;;4939955;29;20103;-58
2021/06/20 08:25:07;;;;;;;3.63;2.20;;;21.30;83.10;;;;;;4940679;29;20047;-58
2021/06/20 08:27:33;;;;;;;3.08;2.20;;;21.30;82.70;;;;;;4940006;29;20079;-58
2021/06/20 08:29:59;;;;;;;3.80;1.65;;;21.30;82.50;;;;;;4938151;29;20385;-58
2021/06/20 08:32:25;;;;;;;2.72;1.67;;;21.30;82.40;;;;;;4939465;29;20736;-58
2021/06/20 08:34:52;;;;;;;2.35;1.50;;;21.20;82.10;;;;;;4939849;29;20039;-58
2021/06/20 08:37:18;;;;;;;2.13;1.50;;;21.30;82.30;;;;;;4939764;29;21020;-58
2021/06/20 08:39:44;;;;;;;1.98;1.35;;;21.40;82.30;;;;;;4939855;29;20064;-62
2021/06/20 08:42:10;;;;;;;3.92;1.55;;;21.40;81.70;;;;;;4940629;29;20043;-60
2021/06/20 08:44:36;;;;;;;2.10;1.15;;;21.50;80.80;;;;;;4939683;29;20054;-61
2021/06/20 08:47:04;;;;;;;4.50;1.48;;;21.60;80.40;;;;;;4939991;29;20416;-68
2021/06/20 08:49:30;;;;;;;3.17;1.35;;;21.60;79.80;;;;;;4922586;29;20055;-66
2021/06/20 08:51:58;;;;;;;3.83;1.02;;;21.60;79.90;;;;;;4939247;29;20092;-68
2021/06/20 08:54:24;;;;;;;4.07;1.33;;;21.60;79.70;;;;;;4934507;29;20122;-64
2021/06/20 08:56:51;;;;;;;2.03;1.02;;;21.60;79.70;;;;;;4939518;29;20035;-64
2021/06/20 08:59:22;;;;;;;4.15;1.30;;;21.60;79.70;;;;;;4939914;29;20617;-63
2021/06/20 09:01:49;;;;;;;2.90;1.10;;;21.60;79.20;;;;;;4939310;29;20043;-63
2021/06/20 09:04:41;;;;;;;2.40;1.25;;;21.50;78.90;;;;;;4938620;28;20036;-63
2021/06/20 09:07:07;;;;;;;6.18;1.42;;;21.50;79.40;;;;;;4935749;29;20062;-62
2021/06/20 09:09:35;;;;;;;1.60;0.75;;;21.40;80.00;;;;;;4939299;29;20073;-63
2021/06/20 09:12:13;;;;;;;2.72;0.73;;;21.50;79.60;;;;;;4938914;29;20059;-65
2021/06/20 09:14:47;;;;;;;3.80;1.02;;;21.60;78.80;;;;;;4936992;29;20043;-63
2021/06/20 09:17:26;;;;;;;4.40;1.13;;;21.70;78.60;;;;;;4938767;29;20414;-63
2021/06/20 09:19:57;;;;;;;1.73;0.73;;;21.80;78.40;;;;;;4940170;29;20483;-63
2021/06/20 09:22:23;;;;;;;1.48;0.63;;;21.90;78.50;;;;;;4940076;29;20043;-63
2021/06/20 09:25:24;;;;;;;4.80;1.20;;;21.90;78.20;;;;;;4939526;29;20035;-63
2021/06/20 09:27:58;;;;;;;2.88;1.27;;;21.90;77.90;;;;;;4918373;29;20804;-63
2021/06/20 09:30:25;;;;;;;1.25;0.82;;;21.90;77.90;;;;;;4939372;29;20073;-63
2021/06/20 09:32:59;;;;;;;1.88;0.90;;;21.90;77.40;;;;;;4939739;29;20043;-63
2021/06/20 09:35:52;;;;;;;1.77;0.82;;;21.80;77.50;;;;;;4939439;29;20043;-65
2021/06/20 09:38:21;;;;;;;4.75;1.65;;;21.80;77.50;;;;;;4939266;29;20114;-63
2021/06/20 09:40:47;;;;;;;3.28;1.02;;;21.70;77.30;;;;;;4939331;29;20127;-64
2021/06/20 09:43:18;;;;;;;3.03;0.50;;;21.70;76.90;;;;;;4938568;29;20044;-64
2021/06/20 09:45:47;;;;;;;3.08;0.85;;;21.60;76.80;;;;;;4939991;29;20043;-63
2021/06/20 09:48:33;;;;;;;3.10;0.95;;;21.70;76.50;;;;;;4938945;29;20043;-64
2021/06/20 09:51:22;;;;;;;3.85;1.00;;;21.70;76.70;;;;;;4938343;29;20036;-64
2021/06/20 09:53:49;;;;;;;3.25;0.80;;;21.80;76.60;;;;;;4932418;29;20032;-64
2021/06/20 09:56:15;;;;;;;3.15;0.90;;;21.80;76.90;;;;;;4938196;29;20035;-63
2021/06/20 09:58:43;;;;;;;2.00;0.80;;;22.00;76.70;;;;;;4937154;29;20066;-63
2021/06/20 10:01:14;;;;;;;3.97;0.82;;;22.10;75.60;;;;;;4939149;29;20031;-64
2021/06/20 10:03:42;;;;;;;3.63;2.28;;;22.10;75.80;;;;;;4938840;29;20098;-64
2021/06/20 10:06:10;;;;;;;7.00;3.90;;;22.10;75.30;;;;;;4939963;29;20036;-64
2021/06/20 10:08:36;;;;;;;4.47;1.50;;;22.20;75.30;;;;;;4938228;29;20468;-64
2021/06/20 10:11:03;;;;;;;2.33;1.27;;;22.30;75.50;;;;;;4937285;29;20051;-64
2021/06/20 10:13:29;;;;;;;2.92;1.08;;;22.30;75.50;;;;;;4941271;28;20067;-65
2021/06/20 10:15:57;;;;;;;3.83;1.45;;;22.30;74.10;;;;;;4941795;29;20036;-63
2021/06/20 10:18:25;;;;;;;2.80;1.15;;;22.40;74.60;;;;;;4941765;29;20098;-63
2021/06/20 10:20:57;;;;;;;1.67;0.68;;;22.50;74.80;;;;;;4941575;29;20455;-64
2021/06/20 10:23:24;;;;;;;3.55;1.05;;;22.50;73.90;;;;;;4942062;29;20036;-63
2021/06/20 10:25:51;;;;;;;2.45;1.00;;;22.60;74.00;;;;;;4942344;29;20046;-63
2021/06/20 10:28:22;;;;;;;4.22;1.50;;;22.60;74.10;;;;;;4940585;29;20047;-65
2021/06/20 10:30:49;;;;;;;3.75;1.00;;;22.80;74.10;;;;;;4940175;29;20031;-64
2021/06/20 10:33:22;;;;;;;5.53;1.33;;;23.00;73.80;;;;;;4941779;29;20141;-64
2021/06/20 10:36:04;;;;;;;1.85;0.70;;;23.20;73.40;;;;;;4941373;29;20115;-63
2021/06/20 10:38:33;;;;;;;3.53;1.02;;;23.30;71.00;;;;;;4940696;29;20118;-64
2021/06/20 10:40:59;;;;;;;2.55;0.80;;;23.30;72.30;;;;;;4940651;29;20087;-64
2021/06/20 10:43:25;;;;;;;2.17;1.00;;;23.30;72.00;;;;;;4941945;29;20036;-68
2021/06/20 10:45:51;;;;;;;2.45;1.00;;;23.40;71.30;;;;;;4947585;29;20401;-66
2021/06/20 10:48:24;;;;;;;3.00;0.90;;;23.50;71.50;;;;;;4949699;29;20043;-67
2021/06/20 10:50:55;;;;;;;3.28;1.00;;;23.50;71.30;;;;;;4946496;29;20043;-67
2021/06/20 10:53:23;;;;;;;4.47;1.20;;;23.60;71.30;;;;;;4948932;29;20039;-68
2021/06/20 10:55:50;;;;;;;4.40;0.80;;;23.70;70.60;;;;;;4947420;29;20035;-68
2021/06/20 10:58:16;;;;;;;2.17;0.68;;;23.70;69.60;;;;;;4943797;29;20074;-66
2021/06/20 11:00:42;;;;;;;4.40;0.93;;;23.70;67.40;;;;;;4943856;29;20075;-68
2021/06/20 11:03:29;;;;;;;1.13;0.57;;;23.70;66.50;;;;;;4942015;28;20082;-68
2021/06/20 11:05:56;;;;;;;5.55;0.90;;;23.50;66.20;;;;;;4940232;29;20057;-67
2021/06/20 11:08:37;;;;;;;3.85;0.52;;;23.50;67.20;;;;;;4940633;29;20648;-67
2021/06/20 11:11:27;;;;;;;1.45;0.88;;;23.50;66.90;;;;;;4941020;29;20094;-67
2021/06/20 11:13:56;;;;;;;1.73;0.55;;;23.50;66.70;;;;;;4939558;29;20050;-68
2021/06/20 11:16:38;;;;;;;1.75;0.47;;;23.40;66.90;;;;;;4941985;29;20176;-68
2021/06/20 11:19:10;;;;;;;2.78;0.50;;;23.40;66.80;;;;;;4940484;29;20039;-68
2021/06/20 11:21:39;;;;;;;1.65;0.70;;;23.30;66.60;;;;;;4940670;29;20039;-67
2021/06/20 11:24:06;;;;;;;3.08;0.70;;;23.30;67.20;;;;;;4940255;28;20945;-68
2021/06/20 11:26:32;;;;;;;2.75;0.70;;;23.30;67.70;;;;;;4924088;29;20032;-67
2021/06/20 11:29:06;;;;;;;3.22;1.10;;;23.20;67.90;;;;;;4940508;29;20027;-67
2021/06/20 11:31:43;;;;;;;3.83;1.15;;;23.30;67.40;;;;;;4923881;29;20094;-64
2021/06/20 11:34:09;;;;;;;5.80;1.02;;;23.30;67.60;;;;;;4925334;29;20054;-63
2021/06/20 11:36:35;;;;;;;2.40;0.80;;;23.30;67.20;;;;;;4922083;29;20134;-63
2021/06/20 11:39:10;;;;;;;1.60;0.68;;;23.30;67.40;;;;;;4922713;29;20500;-63
2021/06/20 11:41:41;;;;;;;1.73;0.70;;;23.30;67.40;;;;;;4940531;29;20495;-63
2021/06/20 11:44:07;;;;;;;1.60;0.50;;;23.20;67.80;;;;;;4939936;29;20110;-63
2021/06/20 11:46:35;;;;;;;3.90;0.80;;;23.20;68.00;;;;;;4938824;29;20377;-63
2021/06/20 11:49:14;;;;;;;1.55;0.55;;;23.30;67.50;;;;;;4940753;29;20047;-62
2021/06/20 11:51:51;;;;;;;3.53;1.00;;;23.30;67.90;;;;;;4940027;29;20062;-63
2021/06/20 11:54:27;;;;;;;3.83;0.90;;;23.30;67.20;;;;;;4939898;29;20040;-63
2021/06/20 11:56:55;;;;;;;2.08;0.57;;;23.30;66.80;;;;;;4940911;29;20158;-63
2021/06/20 11:59:40;;;;;;;2.42;1.00;;;23.30;67.40;;;;;;4938397;29;20047;-63
2021/06/20 12:02:10;;;;;;;3.85;0.82;;;23.40;67.20;;;;;;4940344;29;20050;-63
2021/06/20 12:04:42;;;;;;;2.22;0.93;;;23.30;67.20;;;;;;4940247;29;20046;-63
2021/06/20 12:07:09;;;;;;;3.53;0.82;;;23.30;67.40;;;;;;4938407;29;20447;-62
2021/06/20 12:09:36;;;;;;;4.10;0.98;;;23.20;66.90;;;;;;4939264;29;20048;-64
2021/06/20 12:12:09;;;;;;;4.03;0.65;;;23.20;67.20;;;;;;4939876;29;20031;-61
2021/06/20 12:14:35;;;;;;;;;;;23.20;67.40;;;;;;4939060;29;20043;-62
2021/06/20 12:17:02;;;;;;;3.90;0.80;;;23.20;68.00;;;;;;4938083;29;19930;-62
2021/06/20 12:19:36;;;;;;;4.82;1.23;;;23.20;67.50;;;;;;4939141;29;20047;-63
2021/06/20 12:22:14;;;;;;;5.22;1.40;;;23.30;66.70;;;;;;4938822;29;20031;-61
2021/06/20 12:24:46;;;;;;;3.60;0.80;;;23.40;66.40;;;;;;4939617;29;20028;-61
2021/06/20 12:27:14;;;;;;;6.03;1.50;;;23.40;66.80;;;;;;4939096;29;20035;-61
2021/06/20 12:29:40;;;;;;;3.78;0.90;;;23.40;66.60;;;;;;4930305;28;20086;-62
2021/06/20 12:32:14;;;;;;;2.88;0.88;;;23.40;66.30;;;;;;4930942;29;20050;-62
2021/06/20 12:34:41;;;;;;;4.03;1.27;;;23.50;66.70;;;;;;4932492;29;20043;-62
2021/06/20 12:37:07;;;;;;;4.70;0.80;;;23.40;64.70;;;;;;4929707;28;20039;-61
2021/06/20 12:39:41;;;;;;;6.20;1.42;;;23.40;65.60;;;;;;4930848;29;20063;-62